Cutler, Ohio
Current Conditions -  °F | °C
As of 7:53 PM on Monday 20 Oct 2014 (Local Time) from KPKB Reporting Station
Light Rain Light Rain  
Wind Chill: 53°   Ceiling: 9000
Heat Index: 53°   Visibility: 10mi
Dew Point: 48°   Wind: 5mph
Humidity: 83%   Direction: 210°SSW
Pressure: 29.94"   Gusts: NA
Location:  39.35°N, 81.79°W
Report Text: KPKB 202353Z 21004KT 10SM -RA SCT060 OVC090 12/09 A2994 RMK AO2 SLP139 P0001 60002 T01170089 10150 20117 51002
Loading
Personal Weather Stations






























Interactive Weather Map
Tropical Storm Tracking
New forecast layout! Learn more

10-Day Weather Forecast

Advertisements
Track Severe Weather on mobile